Time;durP1;ratioP1;P1;durP2;ratioP2;P2;SDS_P1;SDS_P2;PMS_P1;PMS_P2;Temp;Humidity;BMP_temperature;BMP_pressure;BME280_temperature;BME280_humidity;BME280_pressure;Samples;Min_cycle;Max_cycle;Signal;HPM_P1;HPM_P2
2023/08/05 00:01:54;;;;;;;3.43;1.90;;;16.40;99.90;;;;;;5113292;28;20688;-69
2023/08/05 00:04:20;;;;;;;3.40;2.30;;;16.30;99.90;;;;;;5113409;28;20195;-69
2023/08/05 00:06:45;;;;;;;2.67;2.47;;;16.30;99.90;;;;;;5094772;28;20195;-69
2023/08/05 00:09:11;;;;;;;4.60;3.03;;;16.20;99.90;;;;;;5101631;28;20177;-69
2023/08/05 00:11:36;;;;;;;3.87;3.07;;;16.10;99.90;;;;;;5083602;28;20263;-69
2023/08/05 00:14:02;;;;;;;5.83;3.33;;;16.10;99.90;;;;;;5095306;28;20169;-69
2023/08/05 00:16:27;;;;;;;5.10;3.30;;;16.10;99.90;;;;;;5109344;28;20169;-69
2023/08/05 00:18:53;;;;;;;3.87;2.90;;;16.10;99.90;;;;;;5082479;28;20193;-69
2023/08/05 00:21:20;;;;;;;4.97;3.00;;;16.00;99.90;;;;;;5077662;28;20189;-69
2023/08/05 00:23:46;;;;;;;5.30;3.50;;;16.00;99.90;;;;;;5112749;28;20192;-69
2023/08/05 00:26:11;;;;;;;3.53;3.20;;;16.00;99.90;;;;;;5112596;28;20726;-69
2023/08/05 00:28:37;;;;;;;3.70;2.67;;;16.00;99.90;;;;;;5094660;28;20403;-69
2023/08/05 00:31:08;;;;;;;3.97;3.40;;;15.90;99.90;;;;;;5094679;28;20648;-69
2023/08/05 00:33:34;;;;;;;2.97;2.60;;;15.90;99.90;;;;;;5071420;28;20658;-69
2023/08/05 00:35:59;;;;;;;3.67;3.00;;;15.80;99.90;;;;;;5093947;28;20418;-69
2023/08/05 00:38:25;;;;;;;4.73;3.10;;;15.80;99.90;;;;;;5112762;28;20230;-69
2023/08/05 00:40:50;;;;;;;3.63;3.33;;;15.70;99.90;;;;;;5094693;28;20538;-69
2023/08/05 00:43:16;;;;;;;4.27;2.53;;;15.70;99.90;;;;;;5112572;28;20189;-69
2023/08/05 00:45:42;;;;;;;5.60;3.50;;;15.70;99.90;;;;;;5089581;28;20165;-69
2023/08/05 00:48:07;;;;;;;3.80;3.40;;;15.60;99.90;;;;;;5097104;28;20161;-69
2023/08/05 00:50:34;;;;;;;3.60;3.23;;;15.60;99.90;;;;;;5086329;28;20197;-69
2023/08/05 00:53:00;;;;;;;3.97;3.40;;;15.60;99.90;;;;;;5073988;28;20169;-69
2023/08/05 00:55:27;;;;;;;7.00;2.93;;;15.60;99.90;;;;;;5073726;28;20445;-69
2023/08/05 00:57:52;;;;;;;7.50;3.90;;;15.60;99.90;;;;;;5092069;28;20435;-69
2023/08/05 01:00:18;;;;;;;3.80;3.40;;;15.50;99.90;;;;;;5071175;28;20482;-69
2023/08/05 01:02:43;;;;;;;4.23;3.40;;;15.50;99.90;;;;;;5074455;28;20220;-69
2023/08/05 01:05:09;;;;;;;3.83;3.47;;;15.50;99.90;;;;;;5080400;28;20650;-69
2023/08/05 01:07:36;;;;;;;4.20;2.80;;;15.40;99.90;;;;;;5091858;28;20658;-69
2023/08/05 01:10:02;;;;;;;3.80;3.07;;;15.40;99.90;;;;;;5083562;28;20209;-69
2023/08/05 01:12:27;;;;;;;4.50;3.63;;;15.30;99.90;;;;;;5091856;28;20412;-69
2023/08/05 01:14:53;;;;;;;6.13;3.83;;;15.30;99.90;;;;;;5092019;28;20169;-69
2023/08/05 01:17:18;;;;;;;4.63;3.13;;;15.30;99.90;;;;;;5091764;28;20170;-69
2023/08/05 01:19:45;;;;;;;3.23;2.93;;;15.20;99.90;;;;;;5073732;28;20435;-69
2023/08/05 01:22:39;;;;;;;3.50;3.20;;;15.20;99.90;;;;;;5091756;28;20173;-69
2023/08/05 01:25:10;;;;;;;3.30;3.00;;;15.20;99.90;;;;;;5072368;28;20425;-69
2023/08/05 01:27:37;;;;;;;5.70;3.07;;;15.10;99.90;;;;;;5076495;28;20422;-69
2023/08/05 01:30:04;;;;;;;3.13;2.83;;;15.10;99.90;;;;;;5112557;28;20923;-69
2023/08/05 01:32:30;;;;;;;4.20;3.70;;;15.10;99.90;;;;;;5093840;28;20450;-69
2023/08/05 01:34:57;;;;;;;3.80;2.57;;;15.10;99.90;;;;;;5111912;28;20399;-69
2023/08/05 01:37:22;;;;;;;4.87;2.67;;;15.00;99.90;;;;;;5108359;28;20891;-69
2023/08/05 01:39:48;;;;;;;7.97;3.60;;;15.00;99.90;;;;;;5075273;28;20434;-69
2023/08/05 01:42:13;;;;;;;3.33;2.80;;;15.00;99.90;;;;;;5112098;28;20169;-69
2023/08/05 01:44:39;;;;;;;5.20;2.97;;;15.00;99.90;;;;;;5093836;28;20169;-69
2023/08/05 01:47:05;;;;;;;4.83;3.63;;;15.00;99.90;;;;;;5093587;28;20161;-69
2023/08/05 01:49:30;;;;;;;4.50;3.33;;;15.00;99.90;;;;;;5115580;28;20169;-70
2023/08/05 01:51:56;;;;;;;3.70;3.40;;;15.00;99.90;;;;;;5108702;28;20184;-69
2023/08/05 01:54:21;;;;;;;5.70;3.10;;;15.00;99.90;;;;;;5102105;28;20196;-69
2023/08/05 01:56:47;;;;;;;3.90;3.27;;;15.00;99.90;;;;;;5097293;28;20157;-69
2023/08/05 01:59:12;;;;;;;5.80;3.93;;;15.00;99.90;;;;;;5115874;28;20165;-69
2023/08/05 02:01:45;;;;;;;5.40;3.17;;;15.00;99.90;;;;;;5115683;28;20181;-69
2023/08/05 02:04:11;;;;;;;5.20;4.17;;;15.10;99.90;;;;;;5115644;28;20214;-69
2023/08/05 02:06:36;;;;;;;4.93;3.87;;;15.10;99.90;;;;;;5096796;28;20804;-69
2023/08/05 02:09:02;;;;;;;4.87;3.93;;;15.10;99.90;;;;;;5081050;28;20410;-69
2023/08/05 02:11:27;;;;;;;4.60;4.17;;;15.10;99.90;;;;;;5115549;28;20189;-69
2023/08/05 02:13:53;;;;;;;5.57;4.23;;;15.10;99.90;;;;;;5097152;28;20334;-69
2023/08/05 02:16:19;;;;;;;9.43;5.20;;;15.10;99.90;;;;;;5097119;28;20774;-69
2023/08/05 02:18:45;;;;;;;6.60;3.53;;;15.10;99.90;;;;;;5096721;28;20510;-69
2023/08/05 02:21:11;;;;;;;3.40;3.10;;;15.00;99.90;;;;;;5099304;28;20193;-69
2023/08/05 02:23:37;;;;;;;4.20;2.83;;;15.00;99.90;;;;;;5085427;28;20284;-69
2023/08/05 02:26:03;;;;;;;6.77;3.97;;;15.00;99.90;;;;;;5096631;28;20181;-69
2023/08/05 02:28:28;;;;;;;5.03;3.83;;;14.90;99.90;;;;;;5096939;28;20493;-69
2023/08/05 02:30:54;;;;;;;4.80;4.23;;;14.90;99.90;;;;;;5115012;28;20189;-69
2023/08/05 02:33:19;;;;;;;4.00;2.90;;;14.80;99.90;;;;;;5115099;28;20211;-69
2023/08/05 02:35:46;;;;;;;7.07;4.00;;;14.80;99.90;;;;;;5072987;28;20218;-69
2023/08/05 02:38:11;;;;;;;5.40;4.33;;;14.70;99.90;;;;;;5090365;28;20535;-69
2023/08/05 02:40:37;;;;;;;4.40;3.80;;;14.70;99.90;;;;;;5115124;28;20455;-69
2023/08/05 02:43:03;;;;;;;6.70;4.57;;;14.70;99.90;;;;;;5114910;28;20176;-69
2023/08/05 02:45:28;;;;;;;6.40;4.17;;;14.60;99.90;;;;;;5114712;28;20173;-69
2023/08/05 02:47:53;;;;;;;8.90;4.90;;;14.60;99.90;;;;;;5114765;28;20177;-69
2023/08/05 02:50:19;;;;;;;6.13;4.40;;;14.60;99.90;;;;;;5110523;28;20200;-69
2023/08/05 02:52:44;;;;;;;7.50;4.30;;;14.60;99.90;;;;;;5095522;28;20716;-69
2023/08/05 02:55:10;;;;;;;5.90;4.70;;;14.60;99.90;;;;;;5096329;28;20195;-69
2023/08/05 02:57:35;;;;;;;5.63;4.60;;;14.50;99.90;;;;;;5096439;28;20164;-69
2023/08/05 03:00:03;;;;;;;7.00;3.73;;;14.50;99.90;;;;;;5096111;28;20218;-69
2023/08/05 03:02:28;;;;;;;4.10;3.20;;;14.50;99.90;;;;;;5096223;28;20230;-69
2023/08/05 03:04:54;;;;;;;6.37;4.70;;;14.40;99.90;;;;;;5114390;28;20410;-68
2023/08/05 03:07:19;;;;;;;5.80;4.10;;;14.40;99.90;;;;;;5105359;28;20190;-69
2023/08/05 03:09:45;;;;;;;6.37;3.73;;;14.40;99.90;;;;;;5093638;28;20229;-69
2023/08/05 03:12:11;;;;;;;4.73;3.67;;;14.40;99.90;;;;;;5075642;28;20196;-70
2023/08/05 03:14:36;;;;;;;8.07;3.73;;;14.30;99.90;;;;;;5093860;28;20162;-69
2023/08/05 03:17:02;;;;;;;5.90;3.47;;;14.40;99.90;;;;;;5093567;28;20193;-69
2023/08/05 03:19:27;;;;;;;4.00;3.57;;;14.40;99.90;;;;;;5075542;28;20308;-69
2023/08/05 03:21:53;;;;;;;5.27;3.13;;;14.30;99.90;;;;;;5075678;28;20165;-69
2023/08/05 03:24:18;;;;;;;6.20;3.50;;;14.40;99.90;;;;;;5070236;28;20640;-69
2023/08/05 03:26:44;;;;;;;4.30;3.80;;;14.40;99.90;;;;;;5066326;28;20201;-69
2023/08/05 03:29:09;;;;;;;10.23;3.17;;;14.40;99.90;;;;;;5088745;28;20256;-69
2023/08/05 03:31:35;;;;;;;7.33;4.80;;;14.40;99.90;;;;;;5095626;28;20192;-69
2023/08/05 03:34:00;;;;;;;4.33;3.60;;;14.40;99.90;;;;;;5113898;28;20200;-69
2023/08/05 03:36:26;;;;;;;4.30;3.90;;;14.40;99.90;;;;;;5113865;28;20168;-69
2023/08/05 03:38:51;;;;;;;6.70;4.23;;;14.50;99.90;;;;;;5113905;28;20244;-69
2023/08/05 03:41:17;;;;;;;5.50;4.10;;;14.50;99.90;;;;;;5068353;28;20190;-69
2023/08/05 03:43:42;;;;;;;5.63;3.67;;;14.50;99.90;;;;;;5081292;28;20190;-69
2023/08/05 03:46:08;;;;;;;5.10;3.67;;;14.50;99.90;;;;;;5082534;28;20173;-69
2023/08/05 03:48:33;;;;;;;4.43;3.63;;;14.50;99.90;;;;;;5101612;28;20188;-69
2023/08/05 03:51:00;;;;;;;7.87;4.03;;;14.50;99.90;;;;;;5113504;28;20193;-69
2023/08/05 03:53:25;;;;;;;3.77;3.30;;;14.60;99.90;;;;;;5095446;28;20200;-69
2023/08/05 03:55:51;;;;;;;3.13;2.80;;;14.60;99.90;;;;;;5109865;28;20457;-69
2023/08/05 03:58:19;;;;;;;7.40;4.07;;;14.60;99.90;;;;;;5074408;28;20169;-69
2023/08/05 04:00:45;;;;;;;4.30;3.83;;;14.60;99.90;;;;;;5074688;28;20208;-69
2023/08/05 04:03:11;;;;;;;6.50;4.77;;;14.60;99.90;;;;;;5092817;28;20778;-69
2023/08/05 04:05:36;;;;;;;4.27;3.60;;;14.70;99.90;;;;;;5074583;28;20408;-69
2023/08/05 04:08:02;;;;;;;4.70;3.70;;;14.70;99.90;;;;;;5092736;28;20231;-69
2023/08/05 04:10:29;;;;;;;5.93;4.17;;;14.80;99.90;;;;;;5074026;28;20181;-69
2023/08/05 04:12:56;;;;;;;6.43;4.60;;;14.90;99.90;;;;;;5089879;28;20205;-69
2023/08/05 04:15:23;;;;;;;5.40;3.73;;;15.00;99.90;;;;;;5084166;28;20458;-69
2023/08/05 04:17:49;;;;;;;7.03;3.50;;;15.10;99.90;;;;;;5093468;28;20883;-70
2023/08/05 04:20:17;;;;;;;4.03;3.63;;;15.20;99.90;;;;;;5112943;28;20501;-69
2023/08/05 04:22:46;;;;;;;6.10;4.03;;;15.20;99.90;;;;;;5113017;28;20398;-69
2023/08/05 04:25:12;;;;;;;4.87;4.03;;;15.30;99.90;;;;;;5112737;28;20967;-69
2023/08/05 04:27:37;;;;;;;11.97;4.27;;;15.30;99.90;;;;;;5094706;28;20512;-69
2023/08/05 04:30:06;;;;;;;7.33;3.50;;;15.40;99.90;;;;;;5088527;28;20460;-69
2023/08/05 04:32:31;;;;;;;5.73;3.37;;;15.40;99.90;;;;;;5103895;28;20189;-69
2023/08/05 04:34:56;;;;;;;4.67;4.27;;;15.50;99.90;;;;;;5094539;28;20513;-69
2023/08/05 04:37:22;;;;;;;4.67;3.47;;;15.50;99.90;;;;;;5112749;28;20167;-69
2023/08/05 04:39:49;;;;;;;3.43;3.00;;;15.50;99.90;;;;;;5094538;28;20188;-69
2023/08/05 04:42:14;;;;;;;6.23;3.67;;;15.60;99.90;;;;;;5112680;28;20160;-69
2023/08/05 04:44:41;;;;;;;4.47;3.50;;;15.70;99.90;;;;;;5095229;28;20500;-69
2023/08/05 04:47:10;;;;;;;4.43;3.13;;;15.70;99.90;;;;;;5105070;28;20169;-69
2023/08/05 04:49:38;;;;;;;4.63;3.20;;;15.80;99.90;;;;;;5112509;28;20406;-69
2023/08/05 04:52:06;;;;;;;3.13;2.83;;;15.90;99.90;;;;;;5112596;28;20391;-69
2023/08/05 04:54:38;;;;;;;4.87;3.30;;;15.90;99.90;;;;;;5112517;28;20403;-69
2023/08/05 04:57:05;;;;;;;5.63;3.43;;;16.00;99.90;;;;;;5112270;28;20399;-69
2023/08/05 04:59:30;;;;;;;8.33;4.30;;;16.10;99.90;;;;;;5062325;28;20772;-69
2023/08/05 05:01:56;;;;;;;5.07;3.50;;;16.10;99.90;;;;;;5073896;28;20478;-69
2023/08/05 05:04:21;;;;;;;9.03;4.73;;;16.20;99.90;;;;;;5091844;28;20191;-69
2023/08/05 05:06:47;;;;;;;5.40;3.60;;;16.20;99.90;;;;;;5091776;28;20264;-69
2023/08/05 05:09:12;;;;;;;9.97;5.40;;;16.30;99.90;;;;;;5072620;28;20253;-69
2023/08/05 05:11:38;;;;;;;4.43;3.77;;;16.20;99.90;;;;;;5109504;28;20298;-69
2023/08/05 05:14:06;;;;;;;8.87;4.87;;;16.20;99.90;;;;;;5110416;28;20195;-69
2023/08/05 05:16:31;;;;;;;9.10;5.83;;;16.20;99.90;;;;;;5088909;28;20170;-69
2023/08/05 05:18:57;;;;;;;7.60;5.40;;;16.20;99.90;;;;;;5091830;28;20403;-69
2023/08/05 05:21:22;;;;;;;7.23;4.30;;;16.20;99.90;;;;;;5092276;28;20194;-69
2023/08/05 05:23:48;;;;;;;7.43;4.27;;;16.20;99.90;;;;;;5078087;28;20576;-69
2023/08/05 05:26:13;;;;;;;5.87;4.30;;;16.10;99.90;;;;;;5095908;28;20161;-69
2023/08/05 05:28:39;;;;;;;6.90;5.60;;;16.10;99.90;;;;;;5096282;28;20177;-69
2023/08/05 05:31:04;;;;;;;8.23;4.77;;;16.10;99.90;;;;;;5091547;28;20287;-68
2023/08/05 05:33:30;;;;;;;4.93;4.30;;;16.10;99.90;;;;;;5083707;28;20615;-69
2023/08/05 05:35:55;;;;;;;13.20;4.80;;;16.10;99.90;;;;;;5095795;28;20584;-68
2023/08/05 05:38:21;;;;;;;5.23;4.60;;;16.10;99.90;;;;;;5096036;28;20164;-69
2023/08/05 05:40:47;;;;;;;10.17;5.40;;;16.10;99.90;;;;;;5096163;28;20192;-69
2023/08/05 05:43:12;;;;;;;6.47;4.50;;;16.10;99.90;;;;;;5077782;28;20177;-69
2023/08/05 05:45:39;;;;;;;13.73;5.30;;;16.20;99.90;;;;;;5077425;28;20169;-69
2023/08/05 05:48:05;;;;;;;7.30;4.33;;;16.20;99.90;;;;;;5076144;28;20238;-69
2023/08/05 05:50:31;;;;;;;6.23;5.00;;;16.30;99.90;;;;;;5095531;28;20525;-68
2023/08/05 05:52:56;;;;;;;7.83;5.40;;;16.40;99.90;;;;;;5115990;28;20189;-69
2023/08/05 05:55:22;;;;;;;6.63;5.70;;;16.50;99.90;;;;;;5097428;28;20234;-69
2023/08/05 05:57:48;;;;;;;6.10;4.80;;;16.70;99.90;;;;;;5116061;28;20637;-69
2023/08/05 06:00:14;;;;;;;6.47;4.87;;;17.00;99.90;;;;;;5116102;28;20200;-69
2023/08/05 06:02:40;;;;;;;4.97;4.53;;;17.20;99.90;;;;;;5097615;28;20414;-69
2023/08/05 06:05:07;;;;;;;7.70;5.63;;;17.50;99.90;;;;;;5104288;28;20458;-69
2023/08/05 06:07:33;;;;;;;4.50;4.10;;;17.70;99.90;;;;;;5085202;28;20418;-69
2023/08/05 06:09:58;;;;;;;5.17;4.67;;;17.80;99.90;;;;;;5097621;28;20845;-69
2023/08/05 06:12:27;;;;;;;5.37;4.47;;;17.90;99.90;;;;;;5115968;28;20187;-69
2023/08/05 06:14:53;;;;;;;8.37;4.53;;;18.10;99.90;;;;;;5116323;28;20161;-69
2023/08/05 06:17:19;;;;;;;6.43;5.37;;;18.20;99.90;;;;;;5115898;28;20955;-69
2023/08/05 06:19:44;;;;;;;7.33;5.10;;;18.30;99.90;;;;;;5097266;28;20661;-69
2023/08/05 06:22:10;;;;;;;5.63;4.93;;;18.30;99.90;;;;;;5097088;28;20307;-69
2023/08/05 06:24:35;;;;;;;4.53;4.10;;;18.40;99.90;;;;;;5085151;28;20213;-69
2023/08/05 06:27:01;;;;;;;7.13;4.70;;;18.40;99.90;;;;;;5095050;28;20622;-69
2023/08/05 06:29:27;;;;;;;8.90;5.43;;;18.60;99.90;;;;;;5075590;28;20257;-69
2023/08/05 06:31:52;;;;;;;5.87;3.70;;;18.60;99.90;;;;;;5097194;28;20300;-69
2023/08/05 06:34:20;;;;;;;6.00;4.70;;;18.70;99.90;;;;;;5096327;28;20193;-69
2023/08/05 06:36:45;;;;;;;5.10;4.43;;;18.80;99.90;;;;;;5114955;28;20161;-69
2023/08/05 06:39:11;;;;;;;6.60;4.93;;;19.50;99.90;;;;;;5115034;28;20736;-69
2023/08/05 06:41:36;;;;;;;10.30;5.37;;;20.80;99.90;;;;;;5096801;28;20744;-69
2023/08/05 06:44:02;;;;;;;7.93;4.57;;;22.10;99.90;;;;;;5107917;28;20169;-70
2023/08/05 06:46:27;;;;;;;4.83;4.17;;;23.90;99.90;;;;;;5101728;28;20165;-70
2023/08/05 06:48:53;;;;;;;3.67;3.37;;;25.40;99.90;;;;;;5096632;28;20222;-70
2023/08/05 06:51:18;;;;;;;6.37;3.70;;;26.70;99.90;;;;;;5114829;28;20188;-70
2023/08/05 06:53:44;;;;;;;4.20;3.90;;;27.50;99.90;;;;;;5114680;28;20197;-70
2023/08/05 06:56:11;;;;;;;3.77;3.47;;;27.50;99.90;;;;;;5114561;28;20157;-68
2023/08/05 06:58:36;;;;;;;3.67;3.27;;;27.00;99.90;;;;;;5096564;28;20414;-68
2023/08/05 07:01:02;;;;;;;4.40;4.00;;;26.20;99.90;;;;;;5087635;28;21101;-71
2023/08/05 07:03:28;;;;;;;6.13;5.53;;;25.50;99.90;;;;;;5106155;28;20214;-68
2023/08/05 07:05:55;;;;;;;10.47;3.97;;;24.80;99.90;;;;;;5114327;28;20258;-69
2023/08/05 07:08:22;;;;;;;4.93;3.70;;;25.30;99.90;;;;;;5096301;28;21040;-68
2023/08/05 07:10:57;;;;;;;4.27;3.87;;;26.60;99.90;;;;;;5114500;28;21043;-69
2023/08/05 07:13:23;;;;;;;4.90;4.50;;;27.20;99.90;;;;;;5114319;28;20442;-68
2023/08/05 07:15:49;;;;;;;3.90;3.60;;;27.50;99.90;;;;;;5113624;28;20406;-68
2023/08/05 07:18:15;;;;;;;5.17;4.50;;;28.90;99.90;;;;;;5067588;28;20421;-67
2023/08/05 07:20:40;;;;;;;6.37;3.67;;;30.20;76.60;;;;;;5093173;28;20201;-67
2023/08/05 07:23:06;;;;;;;4.40;4.00;;;31.50;66.10;;;;;;5114250;28;20169;-68
2023/08/05 07:25:31;;;;;;;4.20;3.50;;;32.80;59.10;;;;;;5113928;28;20165;-67
2023/08/05 07:27:57;;;;;;;4.63;4.23;;;34.20;55.40;;;;;;5114219;28;20210;-69
2023/08/05 07:30:22;;;;;;;5.20;4.80;;;35.80;52.60;;;;;;5114064;28;20177;-69
2023/08/05 07:32:48;;;;;;;3.30;3.00;;;37.20;49.50;;;;;;5095741;28;20231;-69
2023/08/05 07:35:14;;;;;;;6.13;4.63;;;38.50;45.50;;;;;;5070486;28;20157;-68
2023/08/05 07:37:42;;;;;;;4.50;4.10;;;39.00;41.00;;;;;;5071195;28;20181;-69
2023/08/05 07:40:12;;;;;;;5.33;4.50;;;39.00;39.00;;;;;;5055333;28;20486;-69
2023/08/05 07:42:39;;;;;;;4.00;3.70;;;39.30;38.20;;;;;;5073126;28;20951;-69
2023/08/05 07:45:09;;;;;;;3.60;3.30;;;39.50;38.00;;;;;;5072014;28;20456;-69
2023/08/05 07:47:39;;;;;;;3.10;2.90;;;40.20;37.80;;;;;;5073049;28;20400;-69
2023/08/05 07:50:07;;;;;;;4.17;3.10;;;41.00;37.70;;;;;;5075574;28;20424;-68
2023/08/05 07:52:33;;;;;;;2.70;2.50;;;40.50;34.70;;;;;;5092976;28;20426;-69
2023/08/05 07:54:59;;;;;;;4.50;3.93;;;40.00;36.20;;;;;;5072731;28;20408;-68
2023/08/05 07:57:25;;;;;;;3.70;3.40;;;39.40;34.80;;;;;;5072740;28;20169;-70
2023/08/05 07:59:52;;;;;;;3.20;2.97;;;38.90;35.10;;;;;;5072782;28;20420;-70
2023/08/05 08:02:17;;;;;;;4.40;3.27;;;38.60;35.80;;;;;;5072730;28;20165;-69
2023/08/05 08:04:44;;;;;;;4.63;4.33;;;38.10;36.20;;;;;;5072754;28;20372;-69
2023/08/05 08:07:11;;;;;;;2.60;2.40;;;37.70;37.40;;;;;;5076976;28;20539;-69
2023/08/05 08:09:36;;;;;;;3.20;3.00;;;36.90;37.00;;;;;;5086725;28;20427;-69
2023/08/05 08:12:03;;;;;;;2.90;2.67;;;36.50;38.30;;;;;;5105152;28;20399;-69
2023/08/05 08:14:28;;;;;;;4.27;3.10;;;36.30;39.10;;;;;;5113116;28;20189;-69
2023/08/05 08:16:54;;;;;;;3.17;2.87;;;36.20;39.20;;;;;;5112953;28;20377;-69
2023/08/05 08:19:21;;;;;;;2.20;2.00;;;36.00;39.40;;;;;;5113111;28;20163;-69
2023/08/05 08:21:46;;;;;;;2.80;2.60;;;35.30;38.40;;;;;;5113053;28;20509;-69
2023/08/05 08:24:12;;;;;;;2.50;2.23;;;34.20;38.30;;;;;;5099707;28;20514;-69
2023/08/05 08:26:37;;;;;;;3.40;2.83;;;34.30;40.00;;;;;;5092802;28;20174;-69
2023/08/05 08:29:03;;;;;;;3.20;2.50;;;34.50;39.40;;;;;;5112959;28;20192;-69
2023/08/05 08:31:30;;;;;;;2.17;1.97;;;34.60;39.20;;;;;;5112825;28;20287;-70
2023/08/05 08:33:56;;;;;;;2.40;2.20;;;34.60;39.90;;;;;;5113045;28;20624;-70
2023/08/05 08:36:22;;;;;;;2.30;2.10;;;34.60;39.50;;;;;;5112568;28;20403;-70
2023/08/05 08:38:48;;;;;;;2.83;2.63;;;34.70;39.40;;;;;;5112903;28;20414;-70
2023/08/05 08:41:13;;;;;;;3.87;3.20;;;34.80;39.90;;;;;;5091715;28;20451;-70
2023/08/05 08:43:40;;;;;;;3.50;3.00;;;34.80;39.60;;;;;;5100537;28;20166;-70
2023/08/05 08:46:07;;;;;;;4.17;2.10;;;34.60;40.00;;;;;;5087059;28;20181;-72
2023/08/05 08:48:37;;;;;;;1.70;1.60;;;34.80;39.80;;;;;;5109094;28;20504;-72
2023/08/05 08:51:03;;;;;;;2.90;2.40;;;35.10;39.40;;;;;;5094352;28;20434;-70
2023/08/05 08:53:31;;;;;;;2.43;2.23;;;35.70;39.00;;;;;;5112579;28;20450;-70
2023/08/05 08:55:57;;;;;;;2.30;2.10;;;35.80;37.80;;;;;;5112201;28;20395;-71
2023/08/05 08:58:23;;;;;;;2.00;1.90;;;35.60;37.50;;;;;;5109959;28;20395;-71
2023/08/05 09:00:49;;;;;;;2.00;1.80;;;36.10;38.10;;;;;;5092498;28;20450;-70
2023/08/05 09:03:17;;;;;;;1.83;1.73;;;36.80;36.90;;;;;;5094214;28;20177;-70
2023/08/05 09:05:49;;;;;;;2.23;2.00;;;36.90;35.40;;;;;;5112200;28;20497;-71
2023/08/05 09:08:15;;;;;;;2.80;2.30;;;38.20;36.00;;;;;;5112209;28;20428;-71
2023/08/05 09:10:42;;;;;;;2.37;1.93;;;39.70;34.20;;;;;;5112228;28;20445;-71
2023/08/05 09:13:08;;;;;;;1.93;1.67;;;40.90;33.70;;;;;;5111988;28;20588;-69
2023/08/05 09:15:36;;;;;;;2.03;1.93;;;41.70;32.90;;;;;;5097041;28;20424;-69
2023/08/05 09:18:03;;;;;;;2.20;2.07;;;42.20;32.20;;;;;;5095891;28;20244;-68
2023/08/05 09:20:30;;;;;;;2.53;2.33;;;42.60;30.20;;;;;;5093968;28;20430;-69
2023/08/05 09:22:59;;;;;;;5.10;3.73;;;43.00;30.20;;;;;;5096201;28;20417;-70
2023/08/05 09:25:24;;;;;;;2.20;2.00;;;43.60;30.70;;;;;;5071769;28;20391;-69
2023/08/05 09:27:53;;;;;;;2.20;2.00;;;42.70;29.20;;;;;;5073341;28;20378;-68
2023/08/05 09:30:23;;;;;;;2.30;2.10;;;41.00;29.10;;;;;;5091444;28;20192;-68
2023/08/05 09:32:49;;;;;;;1.70;1.60;;;39.60;29.90;;;;;;5089696;28;20422;-68
2023/08/05 09:35:15;;;;;;;2.30;2.10;;;38.40;30.50;;;;;;5105211;28;20410;-68
2023/08/05 09:37:52;;;;;;;2.40;2.20;;;37.60;31.70;;;;;;5093624;28;20806;-68
2023/08/05 09:40:22;;;;;;;1.77;1.67;;;36.90;33.20;;;;;;5093758;28;20567;-68
2023/08/05 09:42:59;;;;;;;1.83;1.73;;;36.50;34.00;;;;;;5112105;28;20373;-68
2023/08/05 09:45:25;;;;;;;2.10;1.90;;;35.90;34.00;;;;;;5111856;28;20994;-68
2023/08/05 09:48:00;;;;;;;1.50;1.40;;;35.70;34.80;;;;;;5112197;28;20489;-69
2023/08/05 09:50:27;;;;;;;2.30;2.10;;;35.70;35.70;;;;;;5094301;28;20443;-69
2023/08/05 09:52:56;;;;;;;1.63;1.53;;;36.90;36.20;;;;;;5074157;28;20448;-69
2023/08/05 09:55:22;;;;;;;2.03;1.93;;;38.00;33.80;;;;;;5091853;28;20482;-69
2023/08/05 09:57:48;;;;;;;1.90;1.80;;;38.80;32.90;;;;;;5073914;28;20506;-69
2023/08/05 10:00:15;;;;;;;1.90;1.80;;;40.00;33.00;;;;;;5091930;28;20577;-69
2023/08/05 10:02:44;;;;;;;1.90;1.80;;;40.30;30.70;;;;;;5073837;28;20426;-68
2023/08/05 10:05:11;;;;;;;1.97;1.87;;;39.90;30.60;;;;;;5069096;28;20394;-68
2023/08/05 10:07:40;;;;;;;1.67;1.57;;;38.50;30.10;;;;;;5078745;28;20418;-68
2023/08/05 10:10:09;;;;;;;1.97;1.77;;;37.70;31.50;;;;;;5098874;28;20426;-68
2023/08/05 10:12:40;;;;;;;3.90;2.03;;;37.80;32.20;;;;;;5115692;28;20399;-68
2023/08/05 10:15:08;;;;;;;2.10;2.00;;;38.40;32.90;;;;;;5115306;28;20395;-68
2023/08/05 10:17:38;;;;;;;1.83;1.73;;;39.30;32.70;;;;;;5115482;28;20882;-69
2023/08/05 10:20:06;;;;;;;1.93;1.83;;;40.70;31.90;;;;;;5097148;28;20487;-69
2023/08/05 10:22:31;;;;;;;2.70;1.60;;;41.20;30.20;;;;;;5099021;28;20431;-68
2023/08/05 10:24:59;;;;;;;1.77;1.67;;;40.50;29.10;;;;;;5106567;28;20942;-68
2023/08/05 10:27:43;;;;;;;1.83;1.73;;;39.90;29.80;;;;;;5115382;28;20169;-68
2023/08/05 10:30:14;;;;;;;1.40;1.30;;;39.00;30.40;;;;;;5096930;28;21035;-68
2023/08/05 10:32:52;;;;;;;1.90;1.80;;;38.30;31.30;;;;;;5097185;28;20923;-68
2023/08/05 10:35:39;;;;;;;1.53;1.43;;;37.70;32.00;;;;;;5078519;28;20475;-68
2023/08/05 10:38:09;;;;;;;3.03;1.70;;;37.60;33.10;;;;;;5068950;28;20487;-68
2023/08/05 10:40:44;;;;;;;1.47;1.37;;;38.10;32.70;;;;;;5094574;28;20439;-68
2023/08/05 10:43:10;;;;;;;1.80;1.70;;;39.20;32.50;;;;;;5094640;28;20370;-69
2023/08/05 10:45:40;;;;;;;1.40;1.30;;;41.30;33.60;;;;;;5076186;28;20386;-69
2023/08/05 10:48:09;;;;;;;2.20;2.00;;;44.50;32.40;;;;;;5089190;28;20511;-69
2023/08/05 10:50:36;;;;;;;2.40;2.20;;;45.30;28.00;;;;;;5082368;28;20426;-69
2023/08/05 10:53:11;;;;;;;2.70;1.57;;;44.60;27.00;;;;;;5076213;28;20411;-68
2023/08/05 10:55:47;;;;;;;1.70;1.60;;;43.50;27.10;;;;;;5076069;28;20943;-68
2023/08/05 10:58:14;;;;;;;1.83;1.73;;;42.70;27.80;;;;;;5094342;28;20435;-68
2023/08/05 11:00:41;;;;;;;1.60;1.50;;;42.00;27.90;;;;;;5076015;28;20412;-68
2023/08/05 11:03:42;;;;;;;2.13;2.03;;;40.70;28.10;;;;;;5076090;28;20771;-68
2023/08/05 11:06:09;;;;;;;1.50;1.40;;;38.60;28.70;;;;;;5070815;28;20941;-68
2023/08/05 11:08:36;;;;;;;1.70;1.60;;;37.10;29.80;;;;;;5111015;28;20483;-68
2023/08/05 11:11:13;;;;;;;1.20;1.10;;;35.90;31.10;;;;;;5096233;28;20430;-67
2023/08/05 11:13:48;;;;;;;1.97;1.60;;;34.90;32.50;;;;;;5114467;28;21075;-67
2023/08/05 11:16:18;;;;;;;2.00;1.90;;;33.90;33.40;;;;;;5114178;28;20898;-67
2023/08/05 11:18:45;;;;;;;1.43;1.33;;;33.30;35.20;;;;;;5114358;28;20405;-67
2023/08/05 11:21:13;;;;;;;1.87;1.53;;;32.60;35.00;;;;;;5087849;28;20538;-68
2023/08/05 11:23:40;;;;;;;1.50;1.40;;;32.20;36.20;;;;;;5078995;28;20936;-68
2023/08/05 11:26:07;;;;;;;1.60;1.50;;;31.60;36.70;;;;;;5113990;28;20398;-68
2023/08/05 11:28:33;;;;;;;1.80;1.70;;;30.50;37.50;;;;;;5114186;28;20798;-67
2023/08/05 11:31:00;;;;;;;2.40;1.77;;;29.80;38.60;;;;;;5114143;28;20415;-67
2023/08/05 11:33:27;;;;;;;2.07;1.50;;;29.40;39.70;;;;;;5114082;28;20430;-67
2023/08/05 11:35:53;;;;;;;1.30;1.20;;;29.40;41.30;;;;;;5095445;28;20442;-68
2023/08/05 11:38:20;;;;;;;1.70;1.60;;;29.50;42.20;;;;;;5099351;28;20427;-67
2023/08/05 11:40:49;;;;;;;1.90;1.80;;;29.70;42.20;;;;;;5085542;28;20470;-67
2023/08/05 11:43:16;;;;;;;1.73;1.63;;;30.60;43.20;;;;;;5113733;28;20442;-68
2023/08/05 11:45:42;;;;;;;1.50;1.40;;;33.90;44.60;;;;;;5095311;28;20967;-67
2023/08/05 11:48:24;;;;;;;1.40;1.30;;;36.50;42.20;;;;;;5113916;28;20451;-68
2023/08/05 11:51:03;;;;;;;7.03;1.73;;;39.70;38.80;;;;;;5113658;28;20407;-68
2023/08/05 11:53:29;;;;;;;2.17;1.57;;;42.70;34.60;;;;;;5113650;28;20377;-69
2023/08/05 11:55:55;;;;;;;1.47;1.37;;;45.20;31.40;;;;;;5088635;28;20732;-69
2023/08/05 11:58:23;;;;;;;1.70;1.60;;;46.80;29.60;;;;;;5089998;28;20456;-69
2023/08/05 12:00:54;;;;;;;2.60;2.00;;;46.80;26.40;;;;;;5113649;28;20669;-69
2023/08/05 12:03:20;;;;;;;1.60;1.50;;;46.30;26.50;;;;;;5113532;28;20420;-68
2023/08/05 12:05:49;;;;;;;1.53;1.43;;;45.00;26.40;;;;;;5094840;28;20390;-69
2023/08/05 12:08:38;;;;;;;2.20;2.00;;;43.20;26.60;;;;;;5113461;28;20505;-69
2023/08/05 12:11:03;;;;;;;1.63;1.53;;;41.90;27.90;;;;;;5086225;28;20472;-68
2023/08/05 12:13:34;;;;;;;1.73;1.63;;;41.10;27.70;;;;;;5100527;28;20407;-68
2023/08/05 12:15:59;;;;;;;2.30;1.53;;;39.80;27.70;;;;;;5094779;28;20264;-68
2023/08/05 12:18:25;;;;;;;1.90;1.80;;;38.10;28.30;;;;;;5095022;28;20859;-67
2023/08/05 12:20:51;;;;;;;3.93;3.53;;;36.10;29.50;;;;;;5113002;28;20192;-68
2023/08/05 12:23:16;;;;;;;8.03;7.30;;;34.50;31.40;;;;;;5113088;28;20200;-67
2023/08/05 12:25:42;;;;;;;2.57;1.63;;;33.10;33.50;;;;;;5113029;28;20229;-67
2023/08/05 12:28:07;;;;;;;1.60;1.50;;;31.80;35.10;;;;;;5085190;28;20544;-67
2023/08/05 12:30:33;;;;;;;2.33;1.77;;;30.60;36.70;;;;;;5092450;28;20185;-67
2023/08/05 12:32:58;;;;;;;1.80;1.50;;;29.60;38.30;;;;;;5092094;28;20291;-67
2023/08/05 12:35:25;;;;;;;1.73;1.63;;;28.60;39.60;;;;;;5091377;28;20181;-67
2023/08/05 12:37:50;;;;;;;2.07;1.47;;;27.90;41.00;;;;;;5103303;28;20200;-67
2023/08/05 12:40:16;;;;;;;2.23;2.03;;;27.00;42.00;;;;;;5094488;28;20488;-66
2023/08/05 12:42:41;;;;;;;1.80;1.70;;;26.30;43.20;;;;;;5112758;28;20197;-66
2023/08/05 12:45:08;;;;;;;2.20;1.70;;;25.80;44.40;;;;;;5084220;28;20540;-66